Time;durP1;ratioP1;P1;durP2;ratioP2;P2;SDS_P1;SDS_P2;PMS_P1;PMS_P2;Temp;Humidity;BMP_temperature;BMP_pressure;BME280_temperature;BME280_humidity;BME280_pressure;Samples;Min_cycle;Max_cycle;Signal;HPM_P1;HPM_P2
2024/01/26 00:02:08;;;;;;;2.58;1.50;;;10.90;89.10;;;;;;5093534;28;20217;-74
2024/01/26 00:04:35;;;;;;;3.42;1.42;;;10.90;89.00;;;;;;5093750;28;20189;-74
2024/01/26 00:07:05;;;;;;;2.67;1.60;;;10.90;89.20;;;;;;5093573;28;20761;-74
2024/01/26 00:09:32;;;;;;;2.53;1.30;;;10.90;89.40;;;;;;5093252;28;20227;-74
2024/01/26 00:11:59;;;;;;;2.15;1.25;;;10.80;89.20;;;;;;5080848;28;20474;-74
2024/01/26 00:14:26;;;;;;;4.40;2.10;;;10.80;89.00;;;;;;5073190;28;20217;-74
2024/01/26 00:16:57;;;;;;;2.17;1.20;;;10.80;89.00;;;;;;5073174;28;20205;-73
2024/01/26 00:19:26;;;;;;;2.70;1.40;;;10.80;88.90;;;;;;5076231;28;20524;-74
2024/01/26 00:21:53;;;;;;;4.47;3.28;;;10.80;88.80;;;;;;5093423;28;20817;-74
2024/01/26 00:24:21;;;;;;;3.00;1.40;;;10.80;89.10;;;;;;5079674;28;20243;-74
2024/01/26 00:26:48;;;;;;;2.30;1.40;;;10.80;89.00;;;;;;5072951;28;20719;-74
2024/01/26 00:29:15;;;;;;;3.87;1.53;;;10.80;89.10;;;;;;5073095;28;20464;-73
2024/01/26 00:31:42;;;;;;;2.80;1.67;;;10.80;89.20;;;;;;5078893;28;20474;-74
2024/01/26 00:34:09;;;;;;;2.73;1.73;;;10.90;89.30;;;;;;5097659;28;20611;-74
2024/01/26 00:36:36;;;;;;;2.30;1.30;;;10.90;88.90;;;;;;5082969;28;20546;-74
2024/01/26 00:39:03;;;;;;;2.90;1.50;;;10.90;89.10;;;;;;5077233;28;20185;-73
2024/01/26 00:41:32;;;;;;;2.78;1.40;;;10.80;89.50;;;;;;5076847;28;20647;-74
2024/01/26 00:43:59;;;;;;;2.40;1.70;;;10.90;90.10;;;;;;5076722;28;20635;-74
2024/01/26 00:46:26;;;;;;;3.20;2.30;;;10.90;88.90;;;;;;5076330;28;20217;-74
2024/01/26 00:48:53;;;;;;;3.40;1.63;;;10.80;89.00;;;;;;5076787;28;20890;-74
2024/01/26 00:51:20;;;;;;;3.63;1.27;;;10.80;89.10;;;;;;5077038;28;20433;-74
2024/01/26 00:53:47;;;;;;;2.40;1.73;;;10.80;89.00;;;;;;5076930;28;20523;-74
2024/01/26 00:56:14;;;;;;;3.80;1.70;;;10.80;89.00;;;;;;5076902;28;20428;-74
2024/01/26 00:58:42;;;;;;;2.80;1.93;;;10.80;89.10;;;;;;5076790;28;20662;-74
2024/01/26 01:01:09;;;;;;;3.20;1.73;;;10.80;89.00;;;;;;5095278;28;20439;-74
2024/01/26 01:03:36;;;;;;;3.67;1.90;;;10.80;89.10;;;;;;5097131;28;20464;-74
2024/01/26 01:06:03;;;;;;;2.90;1.37;;;10.80;89.00;;;;;;5096909;28;20788;-73
2024/01/26 01:08:30;;;;;;;3.45;1.80;;;10.90;89.00;;;;;;5096577;28;20443;-74
2024/01/26 01:10:57;;;;;;;3.37;2.00;;;10.90;88.80;;;;;;5094314;28;20216;-74
2024/01/26 01:13:25;;;;;;;3.13;1.70;;;10.90;88.60;;;;;;5076619;28;20875;-74
2024/01/26 01:15:53;;;;;;;3.03;1.60;;;10.90;88.20;;;;;;5076474;28;20481;-74
2024/01/26 01:18:20;;;;;;;2.53;1.30;;;10.90;88.20;;;;;;5076030;28;20523;-74
2024/01/26 01:20:47;;;;;;;2.70;1.40;;;10.90;88.30;;;;;;5075914;28;20436;-74
2024/01/26 01:23:20;;;;;;;2.38;1.30;;;10.90;87.50;;;;;;5080740;28;20477;-74
2024/01/26 01:25:47;;;;;;;2.70;1.65;;;10.90;88.00;;;;;;5096353;28;20188;-73
2024/01/26 01:28:19;;;;;;;2.77;1.30;;;10.90;88.50;;;;;;5096747;28;20276;-74
2024/01/26 01:30:46;;;;;;;2.40;1.50;;;10.90;88.30;;;;;;5096789;28;20545;-74
2024/01/26 01:33:14;;;;;;;2.50;1.40;;;10.90;88.40;;;;;;5096222;28;20435;-74
2024/01/26 01:35:41;;;;;;;2.77;1.63;;;10.90;88.40;;;;;;5096155;28;20451;-74
2024/01/26 01:38:08;;;;;;;2.90;1.80;;;10.90;88.20;;;;;;5096324;28;20513;-74
2024/01/26 01:40:35;;;;;;;2.50;1.77;;;10.80;88.30;;;;;;5096064;28;20462;-74
2024/01/26 01:43:02;;;;;;;5.37;1.50;;;10.90;88.20;;;;;;5094350;28;20466;-74
2024/01/26 01:45:29;;;;;;;2.40;1.63;;;10.80;88.10;;;;;;5075782;28;20467;-74
2024/01/26 01:47:56;;;;;;;2.13;1.10;;;10.90;88.10;;;;;;5075457;28;20498;-73
2024/01/26 01:50:25;;;;;;;2.72;1.63;;;10.90;88.00;;;;;;5075666;28;20527;-73
2024/01/26 01:52:53;;;;;;;2.50;1.30;;;10.90;87.70;;;;;;5075888;28;20276;-73
2024/01/26 01:55:20;;;;;;;2.10;1.30;;;10.90;87.90;;;;;;5075815;28;20442;-74
2024/01/26 01:57:49;;;;;;;3.50;1.37;;;10.90;88.00;;;;;;5075263;28;20460;-74
2024/01/26 02:00:16;;;;;;;3.00;1.40;;;10.90;88.10;;;;;;5075527;28;20898;-74
2024/01/26 02:02:47;;;;;;;2.20;1.03;;;10.90;88.20;;;;;;5075678;28;20186;-74
2024/01/26 02:05:15;;;;;;;2.37;1.33;;;10.90;88.20;;;;;;5075690;28;20475;-74
2024/01/26 02:07:50;;;;;;;2.00;1.10;;;10.90;88.50;;;;;;5075624;28;20891;-74
2024/01/26 02:10:21;;;;;;;2.45;1.20;;;10.90;88.70;;;;;;5075446;28;20466;-74
2024/01/26 02:12:48;;;;;;;2.20;1.20;;;10.90;88.30;;;;;;5075595;28;20205;-74
2024/01/26 02:15:15;;;;;;;2.60;1.17;;;11.00;87.50;;;;;;5075402;28;20838;-74
2024/01/26 02:17:42;;;;;;;2.20;1.10;;;10.90;87.70;;;;;;5074986;28;20516;-74
2024/01/26 02:20:10;;;;;;;2.20;1.53;;;10.80;88.20;;;;;;5079174;28;20471;-74
2024/01/26 02:22:38;;;;;;;2.37;1.47;;;10.80;88.40;;;;;;5084652;28;20463;-74
2024/01/26 02:25:07;;;;;;;3.23;2.07;;;10.70;88.60;;;;;;5095501;28;20427;-74
2024/01/26 02:27:34;;;;;;;2.33;1.30;;;10.70;89.70;;;;;;5095475;28;20837;-74
2024/01/26 02:30:01;;;;;;;2.30;1.20;;;10.60;89.10;;;;;;5095284;28;20595;-74
2024/01/26 02:32:29;;;;;;;2.20;1.13;;;10.60;89.10;;;;;;5090790;28;20436;-73
2024/01/26 02:34:56;;;;;;;2.50;1.43;;;10.60;89.60;;;;;;5073994;28;20466;-74
2024/01/26 02:37:23;;;;;;;2.42;1.00;;;10.60;89.80;;;;;;5074972;28;20503;-74
2024/01/26 02:39:50;;;;;;;4.20;1.03;;;10.60;89.30;;;;;;5075014;28;20229;-74
2024/01/26 02:42:18;;;;;;;2.60;1.70;;;10.70;89.00;;;;;;5088449;28;20484;-74
2024/01/26 02:44:45;;;;;;;2.97;1.60;;;10.60;89.20;;;;;;5091754;28;20438;-74
2024/01/26 02:47:12;;;;;;;2.70;1.85;;;10.60;89.60;;;;;;5092662;28;20273;-74
2024/01/26 02:49:42;;;;;;;3.30;1.48;;;10.60;89.20;;;;;;5094757;28;20234;-74
2024/01/26 02:52:09;;;;;;;2.65;1.50;;;10.70;88.40;;;;;;5094712;28;20700;-74
2024/01/26 02:54:36;;;;;;;2.25;1.13;;;10.70;88.70;;;;;;5075826;28;20274;-73
2024/01/26 02:57:03;;;;;;;2.20;1.00;;;10.70;88.80;;;;;;5088967;28;20283;-74
2024/01/26 02:59:32;;;;;;;2.23;1.10;;;10.60;88.80;;;;;;5093422;28;20435;-74
2024/01/26 03:02:03;;;;;;;3.60;1.30;;;10.60;88.50;;;;;;5085684;28;20511;-74
2024/01/26 03:04:30;;;;;;;2.20;0.90;;;10.60;88.50;;;;;;5074157;28;20428;-74
2024/01/26 03:06:57;;;;;;;2.75;1.42;;;10.70;88.00;;;;;;5073710;28;20210;-74
2024/01/26 03:09:24;;;;;;;2.60;1.40;;;10.60;87.90;;;;;;5074153;28;20245;-74
2024/01/26 03:11:51;;;;;;;3.07;1.40;;;10.60;88.00;;;;;;5077149;28;20213;-74
2024/01/26 03:14:18;;;;;;;2.42;1.10;;;10.60;87.90;;;;;;5074273;28;20840;-74
2024/01/26 03:16:47;;;;;;;2.07;1.20;;;10.60;86.80;;;;;;5074238;28;20185;-74
2024/01/26 03:19:14;;;;;;;2.20;1.27;;;10.60;86.80;;;;;;5074043;28;20503;-74
2024/01/26 03:21:44;;;;;;;3.03;1.05;;;10.60;86.90;;;;;;5085367;28;20514;-74
2024/01/26 03:24:12;;;;;;;1.80;0.80;;;10.50;86.60;;;;;;5094367;28;20185;-74
2024/01/26 03:26:39;;;;;;;2.40;1.20;;;10.50;86.50;;;;;;5094445;28;20185;-74
2024/01/26 03:29:06;;;;;;;1.85;0.88;;;10.50;86.40;;;;;;5094032;28;20221;-74
2024/01/26 03:31:34;;;;;;;2.45;1.10;;;10.50;85.90;;;;;;5093959;28;20272;-74
2024/01/26 03:34:02;;;;;;;2.73;1.07;;;10.50;86.20;;;;;;5079010;28;20198;-74
2024/01/26 03:36:29;;;;;;;2.25;1.05;;;10.50;86.20;;;;;;5073919;28;20471;-74
2024/01/26 03:38:56;;;;;;;2.20;0.90;;;10.50;86.30;;;;;;5082969;28;20607;-74
2024/01/26 03:41:23;;;;;;;2.70;0.90;;;10.50;86.40;;;;;;5093707;28;20191;-74
2024/01/26 03:43:52;;;;;;;2.45;0.90;;;10.50;86.20;;;;;;5076618;28;20193;-74
2024/01/26 03:46:20;;;;;;;2.10;0.80;;;10.50;86.20;;;;;;5073413;28;20190;-74
2024/01/26 03:48:47;;;;;;;2.00;0.80;;;10.50;86.30;;;;;;5073570;28;20181;-74
2024/01/26 03:51:16;;;;;;;3.10;0.88;;;10.50;86.20;;;;;;5077169;28;20212;-74
2024/01/26 03:53:43;;;;;;;2.20;0.80;;;10.50;86.00;;;;;;5078163;28;20273;-74
2024/01/26 03:56:10;;;;;;;1.87;0.93;;;10.50;85.70;;;;;;5073631;28;20470;-74
2024/01/26 03:58:37;;;;;;;1.90;1.00;;;10.50;85.20;;;;;;5073183;28;20493;-74
2024/01/26 04:01:04;;;;;;;1.90;1.00;;;10.50;85.30;;;;;;5073226;28;20232;-74
2024/01/26 04:03:31;;;;;;;2.20;0.85;;;10.50;85.20;;;;;;5073588;28;20225;-74
2024/01/26 04:05:58;;;;;;;2.47;1.30;;;10.50;85.40;;;;;;5089385;28;20213;-74
2024/01/26 04:08:26;;;;;;;2.30;1.40;;;10.60;85.20;;;;;;5093681;28;20484;-74
2024/01/26 04:10:53;;;;;;;1.93;0.90;;;10.60;85.00;;;;;;5093709;28;20470;-74
2024/01/26 04:13:20;;;;;;;2.10;1.20;;;10.60;85.10;;;;;;5089852;28;20424;-75
2024/01/26 04:15:47;;;;;;;2.40;1.10;;;10.60;85.00;;;;;;5073217;28;20898;-74
2024/01/26 04:18:15;;;;;;;2.20;1.10;;;10.50;85.20;;;;;;5073116;28;20599;-74
2024/01/26 04:20:46;;;;;;;4.13;1.37;;;10.50;85.20;;;;;;5073085;28;20437;-74
2024/01/26 04:23:13;;;;;;;1.83;0.80;;;10.50;84.90;;;;;;5073391;28;20417;-74
2024/01/26 04:25:41;;;;;;;2.60;1.20;;;10.60;85.00;;;;;;5072933;28;20229;-74
2024/01/26 04:28:08;;;;;;;2.85;1.10;;;10.50;85.00;;;;;;5076806;28;20528;-74
2024/01/26 04:30:35;;;;;;;2.67;1.25;;;10.60;84.90;;;;;;5093469;28;20216;-74
2024/01/26 04:33:02;;;;;;;4.55;1.20;;;10.50;84.60;;;;;;5093409;28;20185;-74
2024/01/26 04:35:30;;;;;;;2.45;1.17;;;10.60;84.30;;;;;;5093455;28;20212;-74
2024/01/26 04:37:57;;;;;;;2.10;1.20;;;10.60;84.30;;;;;;5075864;28;20682;-74
2024/01/26 04:40:25;;;;;;;4.95;1.38;;;10.50;84.20;;;;;;5077798;28;20435;-75
2024/01/26 04:42:54;;;;;;;2.13;1.00;;;10.60;84.50;;;;;;5091501;28;20235;-74
2024/01/26 04:45:21;;;;;;;2.30;1.15;;;10.50;84.50;;;;;;5093389;28;20211;-74
2024/01/26 04:47:48;;;;;;;2.63;1.23;;;10.60;84.50;;;;;;5093251;28;20216;-74
2024/01/26 04:50:15;;;;;;;2.10;0.90;;;10.60;84.10;;;;;;5093162;28;20220;-74
2024/01/26 04:52:42;;;;;;;2.37;1.43;;;10.60;83.80;;;;;;5080966;28;20214;-74
2024/01/26 04:55:09;;;;;;;2.58;1.20;;;10.60;83.50;;;;;;5072936;28;20468;-74
2024/01/26 04:57:36;;;;;;;2.50;1.50;;;10.50;83.80;;;;;;5072896;28;20283;-74
2024/01/26 05:00:06;;;;;;;2.75;1.10;;;10.50;83.70;;;;;;5072195;28;20989;-74
2024/01/26 05:02:33;;;;;;;3.10;1.63;;;10.50;83.90;;;;;;5072654;28;20205;-74
2024/01/26 05:05:02;;;;;;;7.80;3.77;;;10.60;83.00;;;;;;5087119;28;20185;-74
2024/01/26 05:07:32;;;;;;;3.03;1.57;;;10.50;83.40;;;;;;5093217;28;20431;-74
2024/01/26 05:10:05;;;;;;;2.70;1.33;;;10.50;83.90;;;;;;5092953;28;20428;-74
2024/01/26 05:12:32;;;;;;;2.60;1.20;;;10.50;84.20;;;;;;5093260;28;20452;-74
2024/01/26 05:15:09;;;;;;;2.25;1.10;;;10.50;83.70;;;;;;5093209;28;20247;-74
2024/01/26 05:17:36;;;;;;;2.25;1.25;;;10.50;83.60;;;;;;5074587;28;20288;-74
2024/01/26 05:20:04;;;;;;;2.22;1.20;;;10.60;82.60;;;;;;5076520;28;20293;-74
2024/01/26 05:22:31;;;;;;;2.55;1.40;;;10.50;82.90;;;;;;5076943;28;20174;-74
2024/01/26 05:24:58;;;;;;;2.60;1.38;;;10.50;82.60;;;;;;5084062;28;20625;-74
2024/01/26 05:27:26;;;;;;;2.67;1.10;;;10.50;82.50;;;;;;5078476;28;20183;-74
2024/01/26 05:29:53;;;;;;;2.50;1.23;;;10.50;82.40;;;;;;5095248;28;20437;-74
2024/01/26 05:32:22;;;;;;;2.33;1.10;;;10.50;82.60;;;;;;5096685;28;20193;-74
2024/01/26 05:34:49;;;;;;;2.70;1.10;;;10.50;82.40;;;;;;5092671;28;20177;-73
2024/01/26 05:37:16;;;;;;;2.60;1.27;;;10.50;82.50;;;;;;5086078;28;20205;-74
2024/01/26 05:39:43;;;;;;;3.00;1.15;;;10.50;81.90;;;;;;5075343;28;20499;-74
2024/01/26 05:42:10;;;;;;;3.15;1.52;;;10.50;81.60;;;;;;5075830;28;20209;-74
2024/01/26 05:44:37;;;;;;;2.10;1.13;;;10.50;81.10;;;;;;5075437;28;20217;-73
2024/01/26 05:47:05;;;;;;;3.57;1.67;;;10.50;81.00;;;;;;5071264;28;20902;-74
2024/01/26 05:49:33;;;;;;;2.42;1.25;;;10.50;81.20;;;;;;5075553;28;20516;-75
2024/01/26 05:52:00;;;;;;;3.10;1.48;;;10.60;79.60;;;;;;5075553;28;20369;-74
2024/01/26 05:54:27;;;;;;;3.70;2.05;;;10.50;79.90;;;;;;5075887;28;20215;-74
2024/01/26 05:56:54;;;;;;;2.20;1.20;;;10.50;79.90;;;;;;5075567;28;20277;-74
2024/01/26 05:59:21;;;;;;;3.50;1.10;;;10.50;80.60;;;;;;5075822;28;20618;-74
2024/01/26 06:01:48;;;;;;;2.45;1.23;;;10.50;80.10;;;;;;5087427;28;20526;-74
2024/01/26 06:04:15;;;;;;;2.75;1.55;;;10.50;80.10;;;;;;5068415;28;20308;-74
2024/01/26 06:06:44;;;;;;;3.83;1.75;;;10.40;79.90;;;;;;5094644;28;20191;-74
2024/01/26 06:09:11;;;;;;;2.42;1.00;;;10.50;79.70;;;;;;5081385;28;20225;-74
2024/01/26 06:11:38;;;;;;;2.10;1.10;;;10.50;79.40;;;;;;5075378;28;20317;-74
2024/01/26 06:14:05;;;;;;;20.67;15.32;;;10.40;79.10;;;;;;5072569;28;20216;-73
2024/01/26 06:16:32;;;;;;;3.78;2.13;;;10.50;79.80;;;;;;5074301;28;20190;-74
2024/01/26 06:19:00;;;;;;;3.28;2.10;;;10.50;78.90;;;;;;5072964;28;20283;-74
2024/01/26 06:21:28;;;;;;;13.25;7.32;;;10.40;78.90;;;;;;5075574;28;20186;-74
2024/01/26 06:23:56;;;;;;;8.32;2.20;;;10.50;78.00;;;;;;5082240;28;20272;-74
2024/01/26 06:26:25;;;;;;;4.60;2.08;;;10.50;77.40;;;;;;5095212;28;20221;-74
2024/01/26 06:28:52;;;;;;;3.67;1.85;;;10.50;77.80;;;;;;5094495;28;20186;-74
2024/01/26 06:31:19;;;;;;;2.38;1.40;;;10.50;77.40;;;;;;5095148;28;20217;-73
2024/01/26 06:33:46;;;;;;;2.10;1.00;;;10.50;77.10;;;;;;5077312;28;20178;-73
2024/01/26 06:36:16;;;;;;;2.97;1.25;;;10.60;76.70;;;;;;5074714;28;20222;-74
2024/01/26 06:38:43;;;;;;;3.50;1.60;;;10.60;76.30;;;;;;5074558;28;20206;-74
2024/01/26 06:41:12;;;;;;;2.15;1.17;;;10.60;76.40;;;;;;5074640;28;20246;-74
2024/01/26 06:43:39;;;;;;;2.95;1.10;;;10.60;76.10;;;;;;5075305;28;20563;-74
2024/01/26 06:46:06;;;;;;;2.70;1.45;;;10.50;75.50;;;;;;5093203;28;20187;-73
2024/01/26 06:48:33;;;;;;;2.92;1.33;;;10.50;75.70;;;;;;5082431;28;20242;-74
2024/01/26 06:51:00;;;;;;;59.10;28.10;;;10.50;76.00;;;;;;5091642;28;20243;-74
2024/01/26 06:53:27;;;;;;;6.55;2.95;;;10.50;75.70;;;;;;5074650;28;20213;-74
2024/01/26 06:55:54;;;;;;;2.55;1.30;;;10.60;74.20;;;;;;5077789;28;20221;-74
2024/01/26 06:58:22;;;;;;;2.10;1.20;;;10.60;74.40;;;;;;5088848;28;20217;-73
2024/01/26 07:00:52;;;;;;;2.35;1.20;;;10.60;74.00;;;;;;5087065;28;20181;-74
2024/01/26 07:03:20;;;;;;;2.80;1.40;;;10.60;73.90;;;;;;5094898;28;20189;-74
2024/01/26 07:05:47;;;;;;;2.67;1.30;;;10.60;73.80;;;;;;5094426;28;20582;-74
2024/01/26 07:08:14;;;;;;;3.00;1.13;;;10.60;74.40;;;;;;5094680;28;20467;-74
2024/01/26 07:10:41;;;;;;;2.00;1.02;;;10.70;73.60;;;;;;5094585;28;20194;-74
2024/01/26 07:13:08;;;;;;;2.67;1.50;;;10.60;74.30;;;;;;5094230;28;20696;-73
2024/01/26 07:15:36;;;;;;;2.25;1.05;;;10.60;74.90;;;;;;5094049;28;20185;-74
2024/01/26 07:18:06;;;;;;;3.33;2.03;;;10.60;74.80;;;;;;5094671;28;20694;-74
2024/01/26 07:20:33;;;;;;;2.70;1.60;;;10.60;75.30;;;;;;5094383;28;20232;-74
2024/01/26 07:23:00;;;;;;;5.20;1.60;;;10.70;75.40;;;;;;5094098;28;20272;-74
2024/01/26 07:25:31;;;;;;;2.80;1.80;;;10.60;75.20;;;;;;5094208;28;20276;-74
2024/01/26 07:28:02;;;;;;;5.17;1.40;;;10.60;74.90;;;;;;5094299;28;20424;-74
2024/01/26 07:30:29;;;;;;;3.15;1.70;;;10.70;74.40;;;;;;5093996;28;20423;-74
2024/01/26 07:32:57;;;;;;;3.00;2.33;;;10.70;74.50;;;;;;5094189;28;20212;-74
2024/01/26 07:35:24;;;;;;;3.10;1.70;;;10.70;74.30;;;;;;5094073;28;20254;-74
2024/01/26 07:37:55;;;;;;;2.65;1.50;;;10.80;74.70;;;;;;5093806;28;20379;-74
2024/01/26 07:40:22;;;;;;;3.50;1.50;;;10.80;74.00;;;;;;5093893;28;20287;-74
2024/01/26 07:42:49;;;;;;;2.60;1.60;;;10.80;73.90;;;;;;5094014;28;20511;-74
2024/01/26 07:45:16;;;;;;;3.50;1.27;;;10.80;73.70;;;;;;5093702;28;20639;-74
2024/01/26 07:47:43;;;;;;;3.00;1.93;;;10.80;74.00;;;;;;5093804;28;20556;-74
2024/01/26 07:50:12;;;;;;;3.22;1.60;;;10.80;74.00;;;;;;5093987;28;20527;-74
2024/01/26 07:52:39;;;;;;;2.33;1.60;;;10.80;74.00;;;;;;5093884;28;20267;-74
2024/01/26 07:55:09;;;;;;;2.97;2.13;;;10.80;74.00;;;;;;5093531;28;20921;-74
2024/01/26 07:57:37;;;;;;;4.37;2.90;;;10.70;74.30;;;;;;5093456;28;20190;-74
2024/01/26 08:00:08;;;;;;;3.63;2.30;;;10.70;74.70;;;;;;5093636;28;20471;-73
2024/01/26 08:02:35;;;;;;;4.05;2.72;;;10.70;74.60;;;;;;5093801;28;20219;-74
2024/01/26 08:05:02;;;;;;;4.07;2.95;;;10.70;74.70;;;;;;5093851;28;20231;-74
2024/01/26 08:07:31;;;;;;;3.70;2.73;;;10.70;74.10;;;;;;5093717;28;20522;-74
2024/01/26 08:09:58;;;;;;;4.45;3.25;;;10.70;74.10;;;;;;5093629;28;20751;-74
2024/01/26 08:12:25;;;;;;;6.45;3.47;;;10.70;74.00;;;;;;5093286;28;20226;-74
2024/01/26 08:14:52;;;;;;;4.40;2.53;;;10.70;74.80;;;;;;5093284;28;20288;-74
2024/01/26 08:17:19;;;;;;;3.63;1.95;;;10.80;75.00;;;;;;5092937;28;20513;-74
2024/01/26 08:19:46;;;;;;;4.40;1.70;;;10.70;74.20;;;;;;5093166;28;20291;-74
2024/01/26 08:22:13;;;;;;;2.25;1.20;;;10.70;74.40;;;;;;5093754;28;20225;-74
2024/01/26 08:24:47;;;;;;;3.40;1.88;;;10.80;72.30;;;;;;5093268;28;20217;-74
2024/01/26 08:27:14;;;;;;;3.47;2.08;;;10.80;72.60;;;;;;5093510;28;20592;-74
2024/01/26 08:29:41;;;;;;;3.47;2.05;;;10.90;71.90;;;;;;5093091;28;20232;-74
2024/01/26 08:32:08;;;;;;;4.65;2.92;;;10.90;71.70;;;;;;5093363;28;20190;-74
2024/01/26 08:34:36;;;;;;;2.53;1.80;;;10.80;71.90;;;;;;5093016;28;20596;-74
2024/01/26 08:37:04;;;;;;;3.43;1.43;;;10.90;72.90;;;;;;5093286;28;20181;-74
2024/01/26 08:39:31;;;;;;;2.97;1.53;;;11.00;73.40;;;;;;5092904;28;20459;-74
2024/01/26 08:41:59;;;;;;;2.90;1.63;;;11.10;72.60;;;;;;5093222;28;20526;-74
2024/01/26 08:44:26;;;;;;;2.80;1.60;;;11.20;72.10;;;;;;5093198;28;20467;-74
2024/01/26 08:46:54;;;;;;;2.53;0.97;;;11.20;72.70;;;;;;5093433;28;20771;-74
2024/01/26 08:49:21;;;;;;;2.33;1.20;;;11.30;70.80;;;;;;5093170;28;20434;-74
2024/01/26 08:51:48;;;;;;;2.53;1.43;;;11.40;70.80;;;;;;5092838;28;20959;-74
2024/01/26 08:54:15;;;;;;;3.00;1.60;;;11.50;70.50;;;;;;5097226;28;20438;-74
2024/01/26 08:56:46;;;;;;;3.60;1.73;;;11.60;70.40;;;;;;5097108;28;20478;-74
2024/01/26 08:59:18;;;;;;;3.43;1.87;;;11.60;70.30;;;;;;5096855;28;20551;-74
2024/01/26 09:01:45;;;;;;;2.67;1.43;;;11.60;70.10;;;;;;5097166;28;20878;-74
2024/01/26 09:04:12;;;;;;;4.50;1.83;;;11.70;69.90;;;;;;5096807;28;20504;-74
2024/01/26 09:06:39;;;;;;;4.30;2.70;;;11.80;71.30;;;;;;5097136;28;20472;-74
2024/01/26 09:09:07;;;;;;;2.50;1.20;;;11.80;70.50;;;;;;5096917;28;20897;-75
2024/01/26 09:11:35;;;;;;;3.23;1.30;;;12.00;71.10;;;;;;5096916;28;20438;-74
2024/01/26 09:14:02;;;;;;;2.20;1.07;;;12.10;69.20;;;;;;5096988;28;20439;-74
2024/01/26 09:16:30;;;;;;;2.90;1.47;;;12.20;68.10;;;;;;5096509;28;20559;-74
2024/01/26 09:18:58;;;;;;;2.30;1.23;;;12.20;67.60;;;;;;5096145;28;20499;-74
2024/01/26 09:21:25;;;;;;;4.30;1.70;;;12.20;67.50;;;;;;5096648;28;20519;-74
2024/01/26 09:23:52;;;;;;;2.10;1.17;;;12.20;68.30;;;;;;5096285;28;20434;-74
2024/01/26 09:26:21;;;;;;;2.30;0.90;;;12.40;68.30;;;;;;5096374;28;20467;-74
2024/01/26 09:28:48;;;;;;;1.90;0.80;;;12.60;67.70;;;;;;5096511;28;20435;-74
2024/01/26 09:31:15;;;;;;;2.70;1.27;;;12.70;67.10;;;;;;5096580;28;20439;-74
2024/01/26 09:33:44;;;;;;;6.50;1.83;;;13.10;67.10;;;;;;5096497;28;20505;-75
2024/01/26 09:36:11;;;;;;;12.20;6.70;;;13.50;66.20;;;;;;5096421;28;20463;-74
2024/01/26 09:38:38;;;;;;;3.40;1.10;;;13.80;65.40;;;;;;5096416;28;20470;-72
2024/01/26 09:41:05;;;;;;;2.07;0.90;;;14.10;64.40;;;;;;5096326;28;20610;-74
2024/01/26 09:43:32;;;;;;;148.93;75.70;;;14.20;63.50;;;;;;5095953;28;20427;-74
2024/01/26 09:46:05;;;;;;;7.97;4.60;;;14.30;62.70;;;;;;5096451;28;20508;-74
2024/01/26 09:48:34;;;;;;;2.27;0.90;;;14.40;60.80;;;;;;5095968;28;20430;-75
2024/01/26 09:51:03;;;;;;;2.10;1.00;;;14.40;60.70;;;;;;5096139;28;20471;-74
2024/01/26 09:53:32;;;;;;;2.00;0.90;;;14.40;61.40;;;;;;5096185;28;20453;-74
2024/01/26 09:56:01;;;;;;;2.10;0.90;;;14.30;61.10;;;;;;5095994;28;20924;-75
2024/01/26 09:58:28;;;;;;;2.23;1.00;;;14.30;60.30;;;;;;5095832;28;20929;-74
2024/01/26 10:00:56;;;;;;;2.73;0.83;;;14.40;61.40;;;;;;5095942;28;20554;-74
2024/01/26 10:03:24;;;;;;;1.90;0.70;;;14.80;62.00;;;;;;5094795;28;20885;-74
2024/01/26 10:05:51;;;;;;;6.63;0.93;;;15.10;61.30;;;;;;5095419;28;20521;-75
2024/01/26 10:08:20;;;;;;;2.20;0.80;;;15.30;58.40;;;;;;5095914;28;20896;-75
2024/01/26 10:10:47;;;;;;;1.87;0.87;;;15.50;55.80;;;;;;5096026;28;20439;-75
2024/01/26 10:13:18;;;;;;;2.07;0.70;;;15.50;55.10;;;;;;5095819;28;20496;-74
2024/01/26 10:15:45;;;;;;;2.33;0.63;;;15.70;55.00;;;;;;5096108;28;20430;-74
2024/01/26 10:18:13;;;;;;;6.53;0.70;;;15.90;53.60;;;;;;5095308;28;20465;-74
2024/01/26 10:20:42;;;;;;;1.80;0.50;;;16.10;53.10;;;;;;5095624;28;20472;-75
2024/01/26 10:23:13;;;;;;;4.10;1.10;;;16.30;52.30;;;;;;5095285;28;20592;-74
2024/01/26 10:25:43;;;;;;;2.60;0.90;;;16.50;51.40;;;;;;5095258;28;20468;-75
2024/01/26 10:28:11;;;;;;;2.00;0.70;;;16.60;50.40;;;;;;5095179;28;20536;-74
2024/01/26 10:30:43;;;;;;;2.00;0.70;;;16.60;49.90;;;;;;5095495;28;20562;-75
2024/01/26 10:33:12;;;;;;;2.30;0.83;;;16.70;50.50;;;;;;5095385;28;20447;-75
2024/01/26 10:35:42;;;;;;;2.77;1.10;;;16.90;50.70;;;;;;5095359;28;20463;-75
2024/01/26 10:38:10;;;;;;;2.70;0.83;;;17.10;50.40;;;;;;5095305;28;20475;-74
2024/01/26 10:40:40;;;;;;;1.80;0.77;;;17.30;49.20;;;;;;5095208;28;20507;-75
2024/01/26 10:43:10;;;;;;;2.00;0.80;;;17.40;49.20;;;;;;5094863;28;20989;-74
2024/01/26 10:45:38;;;;;;;1.77;0.53;;;17.50;47.70;;;;;;5095081;28;20541;-74
2024/01/26 10:48:06;;;;;;;2.80;0.90;;;17.60;48.00;;;;;;5095031;28;20494;-74
2024/01/26 10:50:35;;;;;;;2.27;0.83;;;17.60;47.60;;;;;;5094611;28;20844;-74
2024/01/26 10:53:04;;;;;;;2.50;0.70;;;17.60;47.20;;;;;;5094920;28;20488;-75
2024/01/26 10:55:32;;;;;;;1.80;0.60;;;17.60;46.80;;;;;;5094668;28;20436;-75
2024/01/26 10:58:00;;;;;;;2.57;0.77;;;17.60;46.60;;;;;;5094521;28;20431;-75
2024/01/26 11:00:29;;;;;;;2.10;0.70;;;17.70;47.70;;;;;;5094400;28;20521;-74
2024/01/26 11:02:56;;;;;;;1.90;0.73;;;17.80;46.20;;;;;;5094803;28;20824;-75
2024/01/26 11:05:23;;;;;;;3.07;0.80;;;17.70;45.80;;;;;;5094784;28;20443;-75
2024/01/26 11:07:51;;;;;;;2.00;0.70;;;17.60;45.90;;;;;;5094810;28;20478;-75
2024/01/26 11:10:22;;;;;;;1.90;0.73;;;17.50;45.40;;;;;;5094694;28;20855;-74
2024/01/26 11:13:01;;;;;;;1.80;0.60;;;17.40;46.00;;;;;;5094809;28;20458;-74
2024/01/26 11:15:30;;;;;;;3.23;1.07;;;17.20;45.70;;;;;;5094322;28;20450;-75
2024/01/26 11:17:57;;;;;;;1.70;0.60;;;17.00;46.40;;;;;;5094433;28;20490;-74
2024/01/26 11:20:26;;;;;;;2.00;0.60;;;16.90;46.50;;;;;;5094053;28;20565;-74
2024/01/26 11:23:01;;;;;;;3.00;0.70;;;16.70;46.60;;;;;;5094431;28;20445;-74
2024/01/26 11:25:34;;;;;;;2.57;0.90;;;16.50;46.80;;;;;;5094457;28;20466;-73
2024/01/26 11:28:02;;;;;;;2.23;0.80;;;16.40;47.30;;;;;;5094072;28;20467;-74
2024/01/26 11:30:30;;;;;;;2.27;0.70;;;16.20;48.10;;;;;;5093989;28;20473;-74
2024/01/26 11:32:58;;;;;;;2.03;0.70;;;16.10;48.20;;;;;;5094156;28;20434;-74
2024/01/26 11:35:26;;;;;;;3.10;1.10;;;16.00;48.50;;;;;;5094159;28;20472;-75
2024/01/26 11:37:54;;;;;;;2.90;1.13;;;15.90;48.50;;;;;;5094177;28;20527;-74
2024/01/26 11:40:23;;;;;;;3.87;0.87;;;15.80;48.60;;;;;;5094069;28;20501;-75
2024/01/26 11:42:50;;;;;;;2.40;0.80;;;15.70;48.80;;;;;;5094054;28;20432;-74
2024/01/26 11:45:41;;;;;;;2.53;0.83;;;15.60;48.80;;;;;;5094165;28;20500;-74
2024/01/26 11:48:09;;;;;;;3.70;0.80;;;15.50;48.90;;;;;;5093967;28;20476;-74
2024/01/26 11:50:43;;;;;;;1.83;0.70;;;15.40;49.50;;;;;;5093919;28;20464;-74
2024/01/26 11:53:11;;;;;;;2.20;0.90;;;15.30;49.60;;;;;;5093733;28;20456;-74
2024/01/26 11:55:39;;;;;;;2.00;0.90;;;15.30;49.80;;;;;;5093989;28;20528;-74
2024/01/26 11:58:10;;;;;;;3.13;0.77;;;15.20;49.70;;;;;;5093474;28;20463;-74
2024/01/26 12:00:40;;;;;;;2.97;0.90;;;15.20;49.80;;;;;;5093652;28;20515;-74
2024/01/26 12:03:08;;;;;;;2.00;0.77;;;15.10;50.10;;;;;;5093445;28;20497;-74
2024/01/26 12:05:36;;;;;;;5.53;1.17;;;15.00;50.70;;;;;;5093745;28;20467;-74
2024/01/26 12:08:05;;;;;;;2.00;0.70;;;14.90;50.90;;;;;;5093406;28;20471;-74
2024/01/26 12:10:32;;;;;;;2.17;1.00;;;14.90;51.40;;;;;;5093691;28;20754;-74
2024/01/26 12:12:59;;;;;;;2.30;0.80;;;14.80;50.80;;;;;;5093565;28;20520;-74
2024/01/26 12:15:31;;;;;;;2.10;0.80;;;14.80;51.10;;;;;;5093656;28;20435;-74
2024/01/26 12:18:01;;;;;;;2.43;1.20;;;14.70;51.40;;;;;;5093243;28;20790;-74
2024/01/26 12:20:28;;;;;;;2.87;1.20;;;14.60;51.60;;;;;;5093221;28;20499;-74
2024/01/26 12:22:55;;;;;;;1.83;0.70;;;14.60;51.90;;;;;;5093458;28;20481;-74
2024/01/26 12:25:26;;;;;;;2.53;0.80;;;14.50;51.70;;;;;;5093541;28;20489;-75
2024/01/26 12:27:53;;;;;;;2.60;1.10;;;14.50;52.10;;;;;;5092381;28;20888;-74
2024/01/26 12:30:21;;;;;;;2.00;0.90;;;14.40;52.30;;;;;;5093137;28;20467;-74
2024/01/26 12:32:48;;;;;;;2.00;0.70;;;14.40;52.70;;;;;;5093326;28;20463;-74
2024/01/26 12:35:17;;;;;;;2.10;1.00;;;14.40;52.40;;;;;;5093371;28;20779;-74
2024/01/26 12:37:45;;;;;;;1.83;0.70;;;14.30;52.70;;;;;;5093405;28;20792;-75
2024/01/26 12:40:13;;;;;;;2.57;1.10;;;14.30;52.80;;;;;;5093069;28;20913;-74
2024/01/26 12:42:41;;;;;;;2.00;0.80;;;14.30;52.80;;;;;;5093302;28;20469;-74
2024/01/26 12:45:08;;;;;;;2.70;0.80;;;14.20;52.70;;;;;;5093293;28;20519;-74
2024/01/26 12:47:35;;;;;;;2.00;0.83;;;14.30;52.80;;;;;;5093337;28;20459;-74
2024/01/26 12:50:03;;;;;;;2.43;0.90;;;14.20;52.80;;;;;;5092970;28;20492;-74